Data for 09/05/2005

Time Sea-Level Adjusted Pressure Absolute Pressure Temperature Relative Humidity Dew Point   
(mb) (inHg) (mb) (inHg) (C) (F) (%) (C) (F)
00:05 1019 30.09 848 25.04 12.2 54 63 5.4 41.7
00:10 1019 30.09 848 25.04 11.8 53.3 67 6 42.8
00:15 1019 30.09 848 25.04 11.2 52.1 68 5.6 42
00:20 1019 30.09 848 25.04 11.1 52 68 5.6 42
00:25 1019 30.09 848 25.04 11.1 51.9 68 5.4 41.7
00:30 1019 30.09 848 25.04 11.2 52.1 66 5.2 41.3
00:35 1019 30.09 848 25.04 11.3 52.3 67 5.3 41.6
00:40 1019 30.09 848 25.04 11.5 52.7 65 5.2 41.4
00:45 1019 30.09 848 25.04 11.9 53.4 63 5.1 41.2
00:50 1019 30.09 848 25.04 12.3 54.1 61 5.1 41.2
00:55 1019 30.09 848 25.04 12.4 54.4 61 5.1 41.2
01:00 1019 30.09 848 25.04 12.4 54.4 61 5.1 41.2
01:05 1019 30.09 848 25.04 12.8 55 60 5.2 41.4
01:10 1019 30.09 848 25.04 12.6 54.6 63 5.7 42.2
01:15 1019 30.09 848 25.04 11.8 53.3 64 5.4 41.7
01:20 1019 30.09 848 25.04 11.6 52.9 65 5.3 41.5
01:25 1019 30.09 848 25.04 11.4 52.6 64 5 41.1
01:30 1019 30.09 848 25.04 11.4 52.5 64 4.8 40.7
01:35 1019 30.09 848 25.04 11.6 52.9 63 4.9 40.8
01:40 1019 30.09 848 25.04 11.4 52.6 65 5.1 41.1
01:45 1019 30.09 848 25.04 10.9 51.6 67 5.1 41.1
01:50 1019 30.09 848 25.04 10.8 51.4 68 5 41.1
01:55 1019 30.09 848 25.04 10.7 51.2 68 5 41.1
02:00 1019 30.09 848 25.04 10.7 51.3 67 5 40.9
02:05 1019 30.09 848 25.04 10.8 51.5 66 4.9 40.8
02:10 1019 30.09 848 25.04 11.2 52.1 65 4.9 40.9
02:15 1019 30.09 848 25.04 11.4 52.6 64 5 41
02:20 1019 30.09 848 25.04 11.5 52.7 64 5 40.9
02:25 1019 30.09 848 25.04 11.7 53 63 4.9 40.9
02:30 1019 30.09 848 25.04 11.8 53.3 63 5 41
02:35 1019 30.09 848 25.04 12.1 53.9 62 5 41
02:40 1019 30.09 848 25.04 12.2 53.9 62 5.2 41.3
02:45 1019 30.09 848 25.04 12 53.5 63 5.1 41.2
02:50 1019 30.09 848 25.04 11.5 52.8 65 5.3 41.5
02:55 1019 30.09 848 25.04 11.2 52.1 66 5.1 41.2
03:00 1019 30.09 848 25.04 10.7 51.3 68 5.1 41.2
03:05 1019 30.09 848 25.04 10.3 50.5 69 5 40.9
03:10 1019 30.09 848 25.04 10.2 50.3 70 4.9 40.8
03:15 1019 30.09 848 25.04 10.4 50.7 67 4.6 40.3
03:20 1019 30.09 848 25.04 10.7 51.3 66 4.8 40.6
03:25 1019 30.09 848 25.04 10.8 51.4 66 4.8 40.6
03:30 1019 30.09 848 25.04 10.9 51.6 66 4.8 40.7
03:35 1019 30.09 848 25.04 11.1 52 65 4.9 40.8
03:40 1019 30.09 848 25.04 11.1 51.9 66 4.9 40.9
03:45 1019 30.09 848 25.04 10.8 51.5 67 5 41
03:50 1019 30.09 848 25.04 10.7 51.3 67 4.8 40.7
03:55 1019 30.09 848 25.04 10.8 51.4 67 4.8 40.7
04:00 1019 30.09 848 25.04 10.8 51.4 67 4.9 40.8
04:05 1019 30.09 848 25.04 10.7 51.3 66 4.7 40.5
04:10 1019 30.09 848 25.04 10.7 51.3 67 4.9 40.7
04:15 1019 30.09 848 25.04 10.6 51 68 5 40.9
04:20 1019 30.09 848 25.04 10.3 50.5 69 4.8 40.6
04:25 1019 30.09 848 25.04 10.4 50.6 67 4.5 40.1
04:30 1019 30.09 848 25.04 10.9 51.6 65 4.7 40.5
04:35 1019 30.09 848 25.04 10.9 51.6 66 4.8 40.6
04:40 1019 30.09 849 25.07 10.8 51.4 66 4.7 40.5
04:45 1019 30.09 849 25.07 10.5 50.9 68 4.8 40.7
04:50 1019 30.09 849 25.07 10.3 50.6 67 4.6 40.2
04:55 1019 30.09 849 25.07 9.7 49.5 71 4.8 40.6
05:00 1019 30.09 849 25.07 9.3 48.7 72 4.6 40.3
05:05 1019 30.09 849 25.07 9 48.2 73 4.5 40.1
05:10 1019 30.09 849 25.07 8.8 47.8 74 4.5 40.1
05:15 1019 30.09 849 25.07 8.7 47.6 75 4.5 40
05:20 1019 30.09 849 25.07 8.5 47.3 75 4.4 39.9
05:25 1020 30.12 849 25.07 8.6 47.4 75 4.4 40
05:30 1020 30.12 849 25.07 8.7 47.6 74 4.3 39.8
05:35 1020 30.12 849 25.07 8.8 47.9 74 4.4 40
05:40 1020 30.12 849 25.07 8.7 47.6 75 4.5 40.1
05:45 1020 30.12 849 25.07 8.5 47.3 75 4.4 39.9
05:50 1020 30.12 849 25.07 8.4 47.2 76 4.5 40.1
05:55 1020 30.12 849 25.07 8.2 46.7 77 4.4 39.9
06:00 1020 30.12 849 25.07 8.4 47.1 75 4.3 39.7
06:05 1020 30.12 849 25.07 8.5 47.2 76 4.4 40
06:10 1020 30.12 849 25.07 8.5 47.3 75 4.4 40
06:15 1020 30.12 849 25.07 8.7 47.6 73 4 39.2
06:20 1020 30.12 849 25.07 9.2 48.5 72 4.4 39.9
06:25 1020 30.12 849 25.07 9.2 48.5 72 4.4 39.9
06:30 1020 30.12 849 25.07 9.4 48.9 71 4.5 40.1
06:35 1020 30.12 849 25.07 9.1 48.4 73 4.5 40.1
06:40 1020 30.12 849 25.07 9.3 48.8 71 4.3 39.8
06:45 1020 30.12 849 25.07 9.3 48.7 72 4.6 40.2
06:50 1020 30.12 849 25.07 9.1 48.4 72 4.4 39.9
06:55 1020 30.12 849 25.07 9.1 48.4 73 4.6 40.4
07:00 1020 30.12 849 25.07 9 48.1 72 4.3 39.7
07:05 1020 30.12 849 25.07 9 48.2 72 4.3 39.8
07:10 1020 30.12 849 25.07 9 48.2 73 4.4 39.9
07:15 1020 30.12 849 25.07 9 48.2 73 4.4 39.9
07:20 1020 30.12 849 25.07 8.9 48.1 74 4.5 40.1
07:25 1020 30.12 849 25.07 8.8 47.9 74 4.5 40.1
07:30 1020 30.12 850 25.1 9 48.1 73 4.5 40.1
07:35 1020 30.12 850 25.1 9.2 48.5 72 4.5 40.1
07:40 1020 30.12 850 25.1 9.6 49.4 70 4.4 40
07:45 1020 30.12 850 25.1 9.9 49.8 69 4.6 40.2
07:50 1021 30.15 850 25.1 10 50 70 4.7 40.5
07:55 1021 30.15 850 25.1 10.1 50.1 69 4.8 40.6
08:00 1021 30.15 850 25.1 10.3 50.6 69 4.9 40.7
08:05 1021 30.15 850 25.1 10.3 50.6 70 5 41.1
08:10 1021 30.15 850 25.1 10.3 50.5 70 5 40.9
08:15 1021 30.15 850 25.1 10.2 50.4 69 4.9 40.8
08:20 1021 30.15 850 25.1 10.4 50.7 68 4.8 40.7
08:25 1021 30.15 850 25.1 10.9 51.7 67 5 41
08:30 1021 30.15 850 25.1 11.4 52.5 65 5 41
08:35 1021 30.15 850 25.1 11.9 53.3 63 5 41
08:40 1021 30.15 850 25.1 12.3 54.1 62 5.2 41.4
08:45 1021 30.15 850 25.1 12.7 54.9 60 5.3 41.5
08:50 1021 30.15 850 25.1 13.4 56.1 58 5.4 41.7
08:55 1021 30.15 850 25.1 14.1 57.4 56 5.5 41.9
09:00 1021 30.15 850 25.1 14.5 58 55 5.7 42.2
09:05 1021 30.15 850 25.1 14.6 58.3 55 5.9 42.6
09:10 1021 30.15 850 25.1 14.8 58.7 53 5.5 42
09:15 1021 30.15 850 25.1 14.7 58.4 55 5.7 42.3
09:20 1021 30.15 850 25.1 14.6 58.4 54 5.6 42.1
09:25 1021 30.15 850 25.1 15.4 59.7 52 5.7 42.3
09:30 1021 30.15 851 25.13 15.6 60.1 52 5.9 42.5
09:35 1021 30.15 851 25.13 15.6 60 52 5.8 42.5
09:40 1021 30.15 851 25.13 15.6 60.1 52 6 42.8
09:45 1021 30.15 851 25.13 16.1 60.9 51 6.1 43
09:50 1021 30.15 851 25.13 16.3 61.3 49 5.6 42.1
09:55 1021 30.15 851 25.13 16.1 61 51 6 42.7
10:00 1021 30.15 851 25.13 16.6 61.9 49 5.9 42.6
10:05 1021 30.15 851 25.13 17.1 62.9 47 5.9 42.6
10:10 1022 30.18 851 25.13 17.1 62.8 48 6.1 43
10:15 1022 30.18 851 25.13 17.3 63.2 47 6.1 43.1
10:20 1022 30.18 851 25.13 17.6 63.6 47 6.2 43.1
10:25 1022 30.18 851 25.13 17.3 63.1 49 6.5 43.7
10:30 1022 30.18 851 25.13 17.5 63.4 48 6.5 43.7
10:35 1022 30.18 851 25.13 17.6 63.7 47 6.4 43.6
10:40 1022 30.18 851 25.13 17.7 63.8 47 6.3 43.4
10:45 1022 30.18 851 25.13 17.9 64.3 47 6.4 43.6
10:50 1022 30.18 851 25.13 18.6 65.5 44 6.3 43.3
10:55 1022 30.18 851 25.13 18.6 65.5 45 6.6 43.8
11:00 1022 30.18 851 25.13 18.1 64.5 47 6.7 44.1
11:05 1022 30.18 851 25.13 18.1 64.6 48 6.9 44.5
11:10 1022 30.18 851 25.13 18.5 65.4 45 6.4 43.5
11:15 1022 30.18 851 25.13 18.7 65.6 46 6.9 44.3
11:20 1022 30.18 851 25.13 18.7 65.6 45 6.8 44.2
11:25 1022 30.18 851 25.13 18.9 66 44 6.6 43.9
11:30 1022 30.18 851 25.13 19.1 66.4 45 6.9 44.4
11:35 1022 30.18 851 25.13 19 66.2 44 6.6 43.9
11:40 1022 30.18 851 25.13 19.2 66.6 42 6.2 43.2
11:45 1022 30.18 851 25.13 19.5 67.1 43 6.8 44.2
11:50 1022 30.18 851 25.13 19.7 67.4 42 6.7 44.1
11:55 1022 30.18 851 25.13 19.4 67 41 6.1 43
12:00 1022 30.18 851 25.13 19.3 66.7 41 6 42.7
12:05 1022 30.18 851 25.13 19.5 67.1 43 6.7 44.1
12:10 1022 30.18 851 25.13 19.9 67.8 41 6.4 43.4
12:15 1022 30.18 851 25.13 20.4 68.7 39 6.3 43.3
12:20 1022 30.18 851 25.13 20.4 68.8 38 6 42.7
12:25 1022 30.18 851 25.13 20.2 68.4 40 6.4 43.6
12:30 1022 30.18 851 25.13 19.8 67.6 40 5.8 42.4
12:35 1022 30.18 851 25.13 20.3 68.6 39 6 42.8
12:40 1022 30.18 851 25.13 20.9 69.5 38 6.1 42.9
12:45 1022 30.18 851 25.13 20.9 69.6 38 6.1 43
12:50 1022 30.18 851 25.13 20.5 69 39 6.1 43
12:55 1022 30.18 851 25.13 20.5 68.8 39 6 42.9
13:00 1021 30.15 851 25.13 21 69.8 37 6 42.7
13:05 1021 30.15 851 25.13 21.4 70.5 36 5.9 42.7
13:10 1021 30.15 851 25.13 21.5 70.7 35 5.8 42.4
13:15 1021 30.15 851 25.13 21.8 71.2 34 5.4 41.7
13:20 1021 30.15 851 25.13 22 71.5 35 6 42.8
13:25 1021 30.15 851 25.13 21.4 70.5 36 5.7 42.2
13:30 1021 30.15 851 25.13 21.8 71.2 36 6.3 43.4
13:35 1021 30.15 850 25.1 21.7 71 33 5.1 41.1
13:40 1021 30.15 850 25.1 22.4 72.3 34 6 42.9
13:45 1021 30.15 850 25.1 21.1 70 34 5 40.9
13:50 1021 30.15 850 25.1 21.3 70.3 34 4.9 40.9
13:55 1021 30.15 850 25.1 22.2 71.9 33 5.2 41.3
14:00 1021 30.15 850 25.1 21.9 71.4 32 4.7 40.4
14:05 1021 30.15 850 25.1 21.7 71 34 5.4 41.8
14:10 1021 30.15 850 25.1 21.5 70.8 34 5.3 41.6
14:15 1021 30.15 850 25.1 21.2 70.2 35 5.2 41.3
14:20 1021 30.15 850 25.1 21.8 71.3 33 4.9 40.9
14:25 1021 30.15 850 25.1 22.4 72.3 33 5.3 41.6
14:30 1021 30.15 850 25.1 22 71.6 32 4.9 40.8
14:35 1021 30.15 850 25.1 22.2 71.9 32 4.8 40.6
14:40 1021 30.15 850 25.1 22.1 71.7 31 4.6 40.2
14:45 1021 30.15 850 25.1 21.9 71.5 32 4.7 40.5
14:50 1021 30.15 850 25.1 22.4 72.4 30 4.2 39.6
14:55 1021 30.15 850 25.1 23.2 73.7 30 4.7 40.4
15:00 1021 30.15 850 25.1 23.3 73.9 29 4.5 40.1
15:05 1021 30.15 850 25.1 23.9 74.9 28 4.5 40.1
15:10 1021 30.15 850 25.1 23.7 74.6 28 4.5 40.1
15:15 1021 30.15 850 25.1 23.6 74.4 29 4.6 40.2
15:20 1021 30.15 850 25.1 23.3 74 30 4.8 40.6
15:25 1021 30.15 850 25.1 23.9 75 29 5 41
15:30 1021 30.15 850 25.1 23.7 74.7 28 4.4 40
15:35 1021 30.15 850 25.1 23.2 73.7 28 3.6 38.5
15:40 1021 30.15 850 25.1 22.8 73 28 3.7 38.6
15:45 1021 30.15 850 25.1 23.1 73.6 27 3.4 38.1
15:50 1021 30.15 850 25.1 23.5 74.4 27 3.7 38.7
15:55 1021 30.15 850 25.1 23.4 74.1 29 4.5 40.1
16:00 1021 30.15 850 25.1 23.5 74.3 27 3.7 38.7
16:05 1021 30.15 850 25.1 23.4 74.1 28 4 39.3
16:10 1021 30.15 850 25.1 23.6 74.5 29 4.6 40.3
16:15 1021 30.15 850 25.1 23.6 74.4 28 4 39.3
16:20 1021 30.15 850 25.1 23.5 74.2 27 3.6 38.6
16:25 1021 30.15 850 25.1 23.5 74.4 27 3.8 38.8
16:30 1021 30.15 850 25.1 23.3 73.9 28 3.7 38.7
16:35 1021 30.15 850 25.1 22.8 73.1 27 3.2 37.8
16:40 1021 30.15 850 25.1 23.3 74 26 2.8 37
16:45 1021 30.15 850 25.1 23.2 73.7 27 3.6 38.4
16:50 1021 30.15 850 25.1 22.5 72.4 28 3.1 37.5
16:55 1021 30.15 850 25.1 22 71.7 28 3 37.4
17:00 1021 30.15 850 25.1 22.4 72.2 27 2.8 37
17:05 1021 30.15 850 25.1 22.6 72.8 28 3.2 37.7
17:10 1021 30.15 850 25.1 22.5 72.4 27 2.7 36.9
17:15 1021 30.15 850 25.1 23 73.4 26 2.5 36.5
17:20 1021 30.15 850 25.1 23.1 73.6 26 2.8 37.1
17:25 1021 30.15 850 25.1 22.9 73.3 26 2.7 36.9
17:30 1021 30.15 850 25.1 23.5 74.2 26 2.9 37.3
17:35 1021 30.15 850 25.1 23.2 73.7 26 2.7 36.9
17:40 1021 30.15 850 25.1 22.9 73.2 26 2.8 37
17:45 1021 30.15 850 25.1 22.5 72.4 27 2.5 36.6
17:50 1021 30.15 850 25.1 22.4 72.3 27 2.5 36.6
17:55 1021 30.15 850 25.1 22.3 72.1 27 2.4 36.4
18:00 1021 30.15 850 25.1 22.2 71.9 28 3 37.5
18:05 1021 30.15 850 25.1 22.1 71.8 28 2.9 37.3
18:10 1021 30.15 851 25.13 22.1 71.7 28 2.8 37
18:15 1021 30.15 851 25.13 21.3 70.4 29 3 37.4
18:20 1021 30.15 851 25.13 21.4 70.4 29 2.9 37.2
18:25 1021 30.15 851 25.13 21.5 70.7 29 2.7 36.9
18:30 1021 30.15 851 25.13 21.4 70.4 28 2.5 36.6
18:35 1021 30.15 851 25.13 21.3 70.4 28 2.5 36.5
18:40 1021 30.15 851 25.13 21.4 70.5 29 2.7 36.8
18:45 1021 30.15 851 25.13 21.1 70 30 2.9 37.3
18:50 1021 30.15 851 25.13 21 69.8 31 3.3 37.9
18:55 1021 30.15 851 25.13 21 69.7 30 2.7 36.9
19:00 1022 30.18 851 25.13 20.8 69.4 30 2.6 36.6
19:05 1022 30.18 851 25.13 20.6 69.1 30 2.4 36.4
19:10 1022 30.18 851 25.13 20.4 68.7 30 2.6 36.7
19:15 1022 30.18 851 25.13 20.3 68.5 32 3 37.4
19:20 1022 30.18 851 25.13 20.2 68.4 32 3 37.4
19:25 1022 30.18 851 25.13 20.2 68.4 31 2.8 37.1
19:30 1022 30.18 851 25.13 20.2 68.4 33 3.6 38.4
19:35 1022 30.18 851 25.13 20.1 68.1 34 3.7 38.7
19:40 1022 30.18 851 25.13 19.9 67.8 34 3.6 38.5
19:45 1022 30.18 851 25.13 19.7 67.4 36 4.5 40
19:50 1022 30.18 851 25.13 19.2 66.5 38 4.6 40.4
19:55 1022 30.18 851 25.13 18.8 65.8 41 5.4 41.6
20:00 1022 30.18 851 25.13 18.1 64.6 41 4.6 40.3
20:05 1022 30.18 851 25.13 18.1 64.7 40 4.6 40.3
20:10 1022 30.18 851 25.13 18.3 64.9 41 5 41
20:15 1022 30.18 851 25.13 17.9 64.3 46 6.3 43.4
20:20 1022 30.18 851 25.13 17.2 63 46 5.7 42.2
20:25 1022 30.18 851 25.13 17.1 62.8 47 5.7 42.2
20:30 1022 30.18 851 25.13 16.8 62.2 42 3.8 38.9
20:35 1022 30.18 851 25.13 17.1 62.8 40 3.4 38.2
20:40 1022 30.18 851 25.13 17.6 63.6 37 2.8 37
20:45 1022 30.18 851 25.13 17.7 63.9 35 2 35.7
20:50 1022 30.18 851 25.13 17.8 64 34 1.9 35.4
20:55 1022 30.18 851 25.13 17.7 63.8 34 1.9 35.4
21:00 1022 30.18 851 25.13 17.5 63.5 35 1.8 35.3
21:05 1022 30.18 851 25.13 17.4 63.3 35 1.7 35.1
21:10 1022 30.18 851 25.13 17.3 63.1 34 1.5 34.8
21:15 1022 30.18 851 25.13 17.2 62.9 35 1.6 35
21:20 1022 30.18 851 25.13 17.1 62.8 35 1.7 35
21:25 1022 30.18 852 25.16 17 62.6 35 1.6 34.8
21:30 1022 30.18 852 25.16 16.9 62.5 35 1.6 34.9
21:35 1022 30.18 852 25.16 16.9 62.3 35 1.5 34.7
21:40 1022 30.18 851 25.13 16.8 62.2 35 1.5 34.7
21:45 1022 30.18 852 25.16 16.6 61.9 36 1.6 34.8
21:50 1022 30.18 852 25.16 16.5 61.6 37 1.7 35.1
21:55 1022 30.18 852 25.16 16.3 61.4 36 1.5 34.8
22:00 1022 30.18 851 25.13 16.4 61.5 36 1.4 34.5
22:05 1022 30.18 851 25.13 16.5 61.6 35 1.1 34
22:10 1022 30.18 851 25.13 16.5 61.7 35 1.3 34.3
22:15 1022 30.18 852 25.16 16.4 61.5 35 1.1 34.1
22:20 1022 30.18 851 25.13 16.3 61.4 36 1.2 34.1
22:25 1022 30.18 852 25.16 16.4 61.4 35 1.1 33.9
22:30 1022 30.18 851 25.13 16.3 61.4 35 1.1 33.9
22:35 1022 30.18 852 25.16 16.4 61.5 35 0.9 33.5
22:40 1022 30.18 852 25.16 16.4 61.6 34 0.8 33.4
22:45 1022 30.18 852 25.16 16.4 61.6 34 0.5 32.9
22:50 1022 30.18 851 25.13 16.3 61.4 34 0.6 33.1
22:55 1022 30.18 851 25.13 16.2 61.1 35 0.6 33.2
23:00 1022 30.18 852 25.16 16 60.8 35 0.7 33.3
23:05 1022 30.18 852 25.16 15.9 60.7 35 0.5 32.9
23:10 1022 30.18 852 25.16 15.9 60.7 35 0.5 32.9
23:15 1022 30.18 851 25.13 15.9 60.7 35 0.5 33
23:20 1022 30.18 851 25.13 15.9 60.6 35 0.5 33
23:25 1022 30.18 851 25.13 15.8 60.4 35 0.6 33.1
23:30 1022 30.18 851 25.13 15.7 60.2 36 0.8 33.4
23:35 1022 30.18 851 25.13 15.6 60.1 36 0.7 33.3
23:40 1022 30.18 851 25.13 15.5 60 36 0.8 33.5
23:45 1022 30.18 851 25.13 15.4 59.8 37 0.9 33.7
23:50 1022 30.18 851 25.13 15.3 59.5 37 0.9 33.5
23:55 1022 30.18 851 25.13 15.3 59.5 38 0.9 33.7
24:00 1022 30.18 851 25.13 15.2 59.3 38 1.1 33.9